Time;durP1;ratioP1;P1;durP2;ratioP2;P2;SDS_P1;SDS_P2;PMS_P1;PMS_P2;Temp;Humidity;BMP_temperature;BMP_pressure;BME280_temperature;BME280_humidity;BME280_pressure;Samples;Min_cycle;Max_cycle;Signal;HPM_P1;HPM_P2
2022/12/14 18:21:33;;;;;;;0.32;0.32;;;0.20;99.90;;;;;;5058591;27;20478;-74
2022/12/14 18:24:10;;;;;;;0.70;0.70;;;0.00;99.90;;;;;;5037185;28;20071;-74
2022/12/14 18:26:37;;;;;;;0.00;0.00;;;0.10;99.90;;;;;;5033803;28;20029;-74
2022/12/14 18:29:03;;;;;;;;;;;0.10;99.90;;;;;;5032162;28;20029;-74
2022/12/14 18:31:34;;;;;;;0.00;0.00;;;0.20;99.90;;;;;;5034537;28;19909;-74
2022/12/14 18:34:01;;;;;;;0.00;0.00;;;0.20;99.90;;;;;;5027679;28;20021;-74
2022/12/14 18:36:27;;;;;;;0.20;0.20;;;0.30;99.90;;;;;;5033261;28;20124;-74
2022/12/14 18:38:53;;;;;;;0.00;0.00;;;0.30;99.90;;;;;;5035119;28;20037;-74
2022/12/14 18:41:22;;;;;;;0.00;0.00;;;0.30;99.90;;;;;;5028160;28;20029;-73
2022/12/14 18:43:49;;;;;;;0.00;0.00;;;0.40;99.90;;;;;;5033481;28;20034;-74
2022/12/14 18:46:16;;;;;;;;;;;0.40;99.90;;;;;;5029893;28;20027;-73
2022/12/14 18:48:48;;;;;;;0.00;0.00;;;0.40;99.90;;;;;;5036381;28;19912;-74
2022/12/14 18:51:23;;;;;;;0.00;0.00;;;0.30;99.90;;;;;;5026670;28;20739;-74
2022/12/14 18:53:54;;;;;;;0.25;0.25;;;0.40;99.90;;;;;;5035082;28;20033;-74
2022/12/14 18:56:26;;;;;;;0.60;0.60;;;0.40;99.90;;;;;;5029993;28;20070;-73
2022/12/14 18:58:59;;;;;;;0.43;0.43;;;0.40;99.90;;;;;;5034046;28;20479;-74
2022/12/14 19:01:26;;;;;;;0.00;0.00;;;0.40;99.90;;;;;;5034316;28;20032;-74
2022/12/14 19:03:53;;;;;;;0.32;0.32;;;0.40;99.90;;;;;;5031044;28;20040;-73
2022/12/14 19:06:21;;;;;;;0.10;0.10;;;0.40;99.90;;;;;;5036195;28;20040;-74
2022/12/14 19:08:47;;;;;;;0.00;0.00;;;0.50;99.90;;;;;;5029397;28;20083;-73
2022/12/14 19:11:38;;;;;;;0.00;0.00;;;0.50;99.90;;;;;;5033794;28;20044;-74
2022/12/14 19:14:05;;;;;;;2.25;1.25;;;0.50;99.90;;;;;;5034834;28;20017;-74
2022/12/14 19:16:31;;;;;;;;;;;0.50;99.90;;;;;;5032634;28;20043;-74
2022/12/14 19:18:59;;;;;;;0.22;0.22;;;0.40;99.90;;;;;;5015689;28;20409;-73
2022/12/14 19:21:26;;;;;;;0.00;0.00;;;0.50;99.90;;;;;;5032988;28;20175;-74
2022/12/14 19:23:54;;;;;;;0.25;0.25;;;0.40;99.90;;;;;;5029251;28;20022;-74
2022/12/14 19:26:23;;;;;;;1.17;0.85;;;0.50;99.90;;;;;;5035632;28;20020;-74
2022/12/14 19:28:51;;;;;;;0.00;0.00;;;0.50;99.90;;;;;;5028445;28;21139;-74
2022/12/14 19:31:17;;;;;;;0.73;0.40;;;0.40;99.90;;;;;;5029300;28;20046;-74
2022/12/14 19:33:44;;;;;;;0.00;0.00;;;0.50;99.90;;;;;;5036878;28;20025;-74
2022/12/14 19:36:12;;;;;;;0.00;0.00;;;0.40;99.90;;;;;;5016477;28;20434;-74
2022/12/14 19:38:40;;;;;;;0.00;0.00;;;0.50;99.90;;;;;;5020003;28;20044;-74
2022/12/14 19:41:10;;;;;;;2.60;1.58;;;0.50;99.90;;;;;;5015961;28;20021;-74
2022/12/14 19:43:36;;;;;;;1.40;1.30;;;0.50;99.90;;;;;;5022115;28;20725;-74
2022/12/14 19:46:10;;;;;;;0.20;0.20;;;0.50;99.90;;;;;;5016182;28;20022;-74
2022/12/14 19:48:36;;;;;;;1.00;0.70;;;0.50;99.90;;;;;;5017104;28;20366;-74
2022/12/14 19:51:09;;;;;;;0.13;0.13;;;0.50;99.90;;;;;;5013604;28;20025;-72
2022/12/14 19:53:41;;;;;;;0.10;0.10;;;0.40;99.90;;;;;;5020318;28;20030;-74
2022/12/14 19:56:08;;;;;;;0.00;0.00;;;0.50;99.90;;;;;;5015260;28;20029;-74
2022/12/14 19:58:33;;;;;;;;;;;0.50;99.90;;;;;;5021390;28;20038;-74
2022/12/14 20:01:06;;;;;;;1.02;0.68;;;0.40;99.90;;;;;;5017850;28;19920;-75
2022/12/14 20:03:32;;;;;;;0.00;0.00;;;0.40;99.90;;;;;;5021178;28;20025;-74
2022/12/14 20:05:59;;;;;;;1.25;1.15;;;0.50;99.90;;;;;;5019497;28;20021;-74
2022/12/14 20:08:28;;;;;;;0.00;0.00;;;0.50;99.90;;;;;;5013525;28;20343;-74
2022/12/14 20:10:56;;;;;;;0.00;0.00;;;0.50;99.90;;;;;;5021668;28;20489;-74
2022/12/14 20:13:24;;;;;;;0.00;0.00;;;0.50;99.90;;;;;;5015804;28;20032;-74
2022/12/14 20:15:53;;;;;;;0.30;0.30;;;0.50;99.90;;;;;;5021965;28;20033;-74
2022/12/14 20:18:21;;;;;;;0.00;0.00;;;0.50;99.90;;;;;;5014503;28;20036;-74
2022/12/14 20:20:49;;;;;;;0.00;0.00;;;0.50;99.90;;;;;;5015315;28;20021;-74
2022/12/14 20:23:16;;;;;;;0.40;0.38;;;0.50;99.90;;;;;;4997372;28;20018;-75
2022/12/14 20:25:42;;;;;;;0.00;0.00;;;0.40;99.90;;;;;;5019320;28;20025;-75
2022/12/14 20:28:10;;;;;;;0.00;0.00;;;0.40;99.90;;;;;;5014055;28;20027;-75
2022/12/14 20:30:45;;;;;;;0.60;0.30;;;0.40;99.90;;;;;;5020256;28;20108;-74
2022/12/14 20:33:12;;;;;;;0.00;0.00;;;0.50;99.90;;;;;;5017643;28;20051;-74
2022/12/14 20:35:38;;;;;;;;;;;0.50;99.90;;;;;;5017497;28;20033;-74
2022/12/14 20:38:06;;;;;;;0.10;0.10;;;0.50;99.90;;;;;;5019228;28;19916;-74
2022/12/14 20:40:35;;;;;;;0.00;0.00;;;0.60;99.90;;;;;;5021017;28;20052;-74
2022/12/14 20:43:03;;;;;;;1.67;0.82;;;0.60;99.90;;;;;;5017859;28;20032;-74
2022/12/14 20:45:31;;;;;;;0.00;0.00;;;0.60;99.90;;;;;;5012619;28;20057;-74
2022/12/14 20:48:03;;;;;;;0.00;0.00;;;0.60;99.90;;;;;;5018430;28;20734;-75
2022/12/14 20:50:30;;;;;;;1.85;1.65;;;0.60;99.90;;;;;;5013577;28;20045;-74
2022/12/14 20:52:56;;;;;;;0.00;0.00;;;0.60;99.90;;;;;;5017303;28;20459;-74
2022/12/14 20:55:30;;;;;;;1.17;1.17;;;0.60;99.90;;;;;;5014571;28;20426;-74
2022/12/14 20:57:57;;;;;;;0.10;0.10;;;0.60;99.90;;;;;;5014893;28;20135;-74
2022/12/14 21:00:24;;;;;;;0.00;0.00;;;0.60;99.90;;;;;;5023397;28;20032;-75
2022/12/14 21:02:50;;;;;;;0.00;0.00;;;0.50;99.90;;;;;;5019659;28;20022;-74
2022/12/14 21:05:16;;;;;;;0.00;0.00;;;0.50;99.90;;;;;;5021587;28;20320;-74
2022/12/14 21:07:42;;;;;;;0.10;0.10;;;0.60;99.90;;;;;;5021751;28;21449;-74
2022/12/14 21:10:10;;;;;;;0.00;0.00;;;0.60;99.90;;;;;;5016921;28;20120;-74
2022/12/14 21:12:36;;;;;;;0.57;0.57;;;0.60;99.90;;;;;;5017374;28;20586;-74
2022/12/14 21:15:02;;;;;;;0.00;0.00;;;0.60;99.90;;;;;;5024486;28;20067;-73
2022/12/14 21:17:30;;;;;;;0.00;0.00;;;0.70;99.90;;;;;;5023636;28;20025;-74
2022/12/14 21:19:56;;;;;;;0.15;0.15;;;0.70;99.90;;;;;;5020815;28;20029;-74
2022/12/14 21:22:25;;;;;;;0.77;0.77;;;0.70;99.90;;;;;;5020137;28;20061;-74
2022/12/14 21:24:52;;;;;;;0.00;0.00;;;0.70;99.90;;;;;;5024257;28;20033;-74
2022/12/14 21:27:23;;;;;;;0.00;0.00;;;0.70;99.90;;;;;;5024682;28;21477;-74
2022/12/14 21:29:50;;;;;;;0.00;0.00;;;0.80;99.90;;;;;;5021201;28;20033;-74
2022/12/14 21:32:17;;;;;;;0.00;0.00;;;0.90;99.90;;;;;;5017532;28;20034;-74
2022/12/14 21:34:45;;;;;;;0.00;0.00;;;0.90;99.90;;;;;;5021101;28;20485;-74
2022/12/14 21:37:11;;;;;;;6.10;1.08;;;0.90;99.90;;;;;;5021539;28;20095;-74
2022/12/14 21:39:38;;;;;;;0.00;0.00;;;0.90;99.90;;;;;;5016247;28;20479;-74
2022/12/14 21:42:14;;;;;;;0.55;0.55;;;0.80;99.90;;;;;;5021166;28;20080;-74
2022/12/14 21:44:43;;;;;;;0.00;0.00;;;0.80;99.90;;;;;;5023697;28;20116;-74
2022/12/14 21:47:14;;;;;;;0.00;0.00;;;0.90;99.90;;;;;;5019601;28;20027;-74
2022/12/14 21:49:43;;;;;;;0.08;0.08;;;0.90;99.90;;;;;;5023199;28;20032;-73
2022/12/14 21:52:16;;;;;;;0.00;0.00;;;0.80;99.90;;;;;;5020819;28;20033;-74
2022/12/14 21:54:46;;;;;;;0.00;0.00;;;0.80;99.90;;;;;;5021575;28;20079;-74
2022/12/14 22:00:01;;;;;;;0.00;0.00;;;0.80;99.90;;;;;;5016659;28;20208;-74
2022/12/14 22:02:27;;;;;;;0.00;0.00;;;0.90;99.90;;;;;;5020040;28;20116;-73
2022/12/14 22:04:55;;;;;;;0.20;0.20;;;0.80;99.90;;;;;;5021441;28;20016;-74
2022/12/14 22:07:30;;;;;;;0.13;0.13;;;0.80;99.90;;;;;;5025182;28;20618;-74
2022/12/14 22:09:57;;;;;;;0.22;0.22;;;0.80;99.90;;;;;;5021961;28;20117;-74
2022/12/14 22:12:25;;;;;;;;;;;0.90;99.90;;;;;;5020037;28;20105;-74
2022/12/14 22:14:53;;;;;;;0.20;0.20;;;0.80;99.90;;;;;;5017838;28;19912;-74
2022/12/14 22:17:25;;;;;;;0.00;0.00;;;0.90;99.90;;;;;;5020744;28;20087;-74
2022/12/14 22:19:53;;;;;;;0.10;0.10;;;0.80;99.90;;;;;;5021424;28;20561;-73
2022/12/14 22:22:18;;;;;;;0.30;0.30;;;0.80;99.90;;;;;;5019849;28;20351;-74
2022/12/14 22:24:48;;;;;;;0.00;0.00;;;0.80;99.90;;;;;;5018516;28;20026;-74
2022/12/14 22:27:14;;;;;;;0.55;0.55;;;0.90;99.90;;;;;;5035963;28;20037;-74
2022/12/14 22:29:39;;;;;;;0.00;0.00;;;0.80;99.90;;;;;;5015738;28;20029;-74
2022/12/14 22:32:06;;;;;;;0.00;0.00;;;0.80;99.90;;;;;;5023704;28;20017;-74
2022/12/14 22:34:31;;;;;;;0.00;0.00;;;0.90;99.90;;;;;;5021488;28;20029;-73
2022/12/14 22:36:58;;;;;;;0.00;0.00;;;0.90;99.90;;;;;;5019437;28;20477;-74
2022/12/14 22:39:25;;;;;;;0.00;0.00;;;0.90;99.90;;;;;;5038063;28;20393;-74
2022/12/14 22:41:50;;;;;;;0.00;0.00;;;1.00;99.90;;;;;;5024264;28;20060;-74
2022/12/14 22:44:16;;;;;;;0.00;0.00;;;1.00;99.90;;;;;;5023758;28;20049;-74
2022/12/14 22:46:44;;;;;;;0.13;0.13;;;0.90;99.90;;;;;;5025737;28;20123;-74
2022/12/14 22:49:17;;;;;;;1.38;1.23;;;0.90;99.90;;;;;;5019859;28;20017;-74
2022/12/14 22:51:44;;;;;;;1.08;1.00;;;0.90;99.90;;;;;;5027500;28;20528;-73
2022/12/14 22:54:25;;;;;;;0.08;0.08;;;1.00;99.90;;;;;;5027878;28;20025;-74
2022/12/14 22:56:56;;;;;;;0.00;0.00;;;0.90;99.90;;;;;;5024699;28;20029;-73
2022/12/14 22:59:33;;;;;;;0.00;0.00;;;0.90;99.90;;;;;;5020450;28;20052;-74
2022/12/14 23:01:59;;;;;;;0.00;0.00;;;0.80;99.90;;;;;;5021637;28;20026;-74
2022/12/14 23:04:25;;;;;;;0.40;0.30;;;0.70;99.90;;;;;;5023878;28;20391;-74
2022/12/14 23:06:51;;;;;;;0.00;0.00;;;0.80;99.90;;;;;;5026434;28;20498;-74
